WetterOnline ( http://www.wetteronline.ch )

Wetter aktuell Emden

Aktuelles Wetter: Emden (5m)

6-stündlich | Neueste Meldungen
Ortszeit Temperatur Wetter
Mo, 18.03. 13:00 5.5° C wolkig
Mo, 18.03. 7:00 3.8° C wolkig
Mo, 18.03. 1:00 4.5° C wolkig
So, 17.03. 19:00 4.8° C leichter Regen
So, 17.03. 13:00 9.5° C wolkig
So, 17.03. 7:00 5.6° C bewölkt
So, 17.03. 1:00 10.6° C bewölkt
Sa, 16.03. 19:00 10.4° C bedeckt
Ortszeit Temperatur Wetter
Mo, 18.03. 17:30 5.4° C leicht bewölkt
Mo, 18.03. 17:20 5.4° C leicht bewölkt
Mo, 18.03. 17:10 5.7° C wolkig
Mo, 18.03. 17:00 6.2° C leichter Regen
Mo, 18.03. 16:50 6.2° C leichter Regen
Mo, 18.03. 16:40 7.7° C wolkig
Mo, 18.03. 16:30 8.5° C leicht bewölkt
Mo, 18.03. 16:00 8.2° C wolkenlos
Mo, 18.03. 15:30 8.5° C leicht bewölkt
Mo, 18.03. 15:00 8.0° C wolkenlos
Mo, 18.03. 14:30 8.3° C wolkig
Ortszeit Relative Feuchte Sichtweite
Mo, 18.03. 13:00 80% 55 km
Mo, 18.03. 7:00 82% 60 km
Mo, 18.03. 1:00 86% 65 km
So, 17.03. 19:00 81% 8 km
So, 17.03. 13:00 63% >70 km
So, 17.03. 7:00 82% 60 km
So, 17.03. 1:00 67% 45 km
Sa, 16.03. 19:00 70% 45 km
Ortszeit Relative Feuchte Sichtweite
Mo, 18.03. 17:30 80% 35 km
Mo, 18.03. 17:20 80% -
Mo, 18.03. 17:10 83% -
Mo, 18.03. 17:00 72% 6 km
Mo, 18.03. 16:50 72% -
Mo, 18.03. 16:40 66% -
Mo, 18.03. 16:30 64% 35 km
Mo, 18.03. 16:00 61% 35 km
Mo, 18.03. 15:30 61% 35 km
Mo, 18.03. 15:00 60% 35 km
Mo, 18.03. 14:30 66% 35 km
Ortszeit Niederschlagsmenge Niederschlagsart
Mo, 18.03. 13:00 1 l/m2 in 6 Std. Regen
Mo, 18.03. 7:00 1 l/m2 in 12 Std. Schnee, Regen
Mo, 18.03. 1:00 0.8 l/m2 in 6 Std. Regen
So, 17.03. 19:00 0.1 l/m2 in 12 Std. Regen
So, 17.03. 13:00 0.1 l/m2 in 6 Std. Regen
So, 17.03. 7:00 3 l/m2 in 12 Std. Regen
So, 17.03. 1:00 0.0 l/m2 in 6 Std. -
Sa, 16.03. 19:00 6 l/m2 in 12 Std. Regen
Ortszeit Niederschlagsmenge Niederschlagsart
Mo, 18.03. 17:30 0.6 l/m2 in 1 Std. gefrierender Regen
Mo, 18.03. 17:20 keine Meldung -
Mo, 18.03. 17:10 keine Meldung -
Mo, 18.03. 17:00 0.1 l/m2 in 1 Std. Regen
Mo, 18.03. 16:50 keine Meldung -
Mo, 18.03. 16:40 keine Meldung -
Mo, 18.03. 16:30 0.0 l/m2 in 1 Std. -
Mo, 18.03. 16:00 0.0 l/m2 in 1 Std. -
Mo, 18.03. 15:30 0.0 l/m2 in 1 Std. -
Mo, 18.03. 15:00 0.0 l/m2 in 1 Std. -
Mo, 18.03. 14:30 0.0 l/m2 in 1 Std. -
Ortszeit Stärke Spitze Richtung
km/h Bft. km/h Grad Sektor
Mo, 18.03. 13:00 20 4 61 270° W
Mo, 18.03. 7:00 25 4 54 270° W
Mo, 18.03. 1:00 25 4 54 250° W
So, 17.03. 19:00 32 5 61 270° W
So, 17.03. 13:00 32 5 54 260° W
So, 17.03. 7:00 18 3 61 240° SW
So, 17.03. 1:00 31 5 80 220° SW
Sa, 16.03. 19:00 36 5 72 230° SW
Ortszeit Stärke Spitze Richtung
km/h Bft. km/h Grad Sektor
Mo, 18.03. 17:30 24 4 50 280° W
Mo, 18.03. 17:20 24 4 - 280° W
Mo, 18.03. 17:10 20 4 - 280° W
Mo, 18.03. 17:00 30 5 56 290° W
Mo, 18.03. 16:50 30 5 - 290° W
Mo, 18.03. 16:40 29 5 - 280° W
Mo, 18.03. 16:30 29 5 58 290° W
Mo, 18.03. 16:00 30 5 57 290° W
Mo, 18.03. 15:30 31 5 57 290° W
Mo, 18.03. 15:00 32 5 58 280° W
Mo, 18.03. 14:30 31 5 57 280° W
Ortszeit Untergrenze Bedeckung Gattung
total tief tief mittel hoch
Mo, 18.03. 13:00 630 m 6/8 6/8 - - -
Mo, 18.03. 7:00 660 m 5/8 5/8 - - -
Mo, 18.03. 1:00 870 m 7/8 3/8 - - -
So, 17.03. 19:00 810 m 7/8 6/8 - - -
So, 17.03. 13:00 870 m 5/8 4/8 - - -
So, 17.03. 7:00 1800 m 7/8 8/8 - - -
So, 17.03. 1:00 930 m 7/8 7/8 - - -
Sa, 16.03. 19:00 840 m 8/8 8/8 - - -
Ortszeit Bedeckungsgrad in Achtel und Wolkenuntergrenze
Mo, 18.03. 17:30 1(600m)
Mo, 18.03. 17:20 1(600m) 2(2100m)
Mo, 18.03. 17:10 2(630m) 4(1500m) 5(2100m)
Mo, 18.03. 17:00 2(690m) 6(1500m) 7(2400m)
Mo, 18.03. 16:50 2(690m) 6(1500m) 7(2400m)
Mo, 18.03. 16:40 2(1320m) 4(1500m) 6(2700m)
Mo, 18.03. 16:30 1(930m) 4(1500m) 5(1500m)
Mo, 18.03. 16:00 1(1380m)
Mo, 18.03. 15:30 2(990m)
Mo, 18.03. 15:00 keine Wolken
Mo, 18.03. 14:30 6(1800m)
Ortszeit Luftdruck NN (hPa) Tendenz (hPa in 3 Std.)
Mo, 18.03. 13:00 1014 + 3,0
Mo, 18.03. 7:00 1008 + 1,8
Mo, 18.03. 1:00 1004 + 1,2
So, 17.03. 19:00 1003 + 2,5
So, 17.03. 13:00 998 + 1,8
So, 17.03. 7:00 993 + 1,7
So, 17.03. 1:00 994 - 2,3
Sa, 16.03. 19:00 998 - 1,4
Ortszeit Luftdruck NN (hPa) Tendenz (hPa in 3 Std.)
Mo, 18.03. 17:30 1017 + 2,4
Mo, 18.03. 17:20 1017 keine Meldung
Mo, 18.03. 17:10 1017 keine Meldung
Mo, 18.03. 17:00 1017 + 2,4
Mo, 18.03. 16:50 1017 keine Meldung
Mo, 18.03. 16:40 1017 keine Meldung
Mo, 18.03. 16:30 1017 + 2,3
Mo, 18.03. 16:00 1016 + 1,8
Mo, 18.03. 15:30 1016 + 2,1
Mo, 18.03. 15:00 1015 + 1,9
Mo, 18.03. 14:30 1015 + 2,2
Ortszeit Schneehöhe (cm)
Mo, 18.03. 13:00 0
Mo, 18.03. 7:00 0
Mo, 18.03. 1:00 0
So, 17.03. 19:00 0
So, 17.03. 13:00 0
So, 17.03. 7:00 0
So, 17.03. 1:00 0
Sa, 16.03. 19:00 0
Ortszeit Schneehöhe (cm)
Mo, 18.03. 17:30 0
Mo, 18.03. 17:20 0
Mo, 18.03. 17:10 0
Mo, 18.03. 17:00 0
Mo, 18.03. 16:50 0
Mo, 18.03. 16:40 0
Mo, 18.03. 16:30 0
Mo, 18.03. 16:00 0
Mo, 18.03. 15:30 0
Mo, 18.03. 15:00 0
Mo, 18.03. 14:30 0
Link zu dieser Seite / Seite empfehlen

Das Wetter in ...